sensor_id;sensor_type;location;lat;lon;timestamp;pressure;altitude;pressure_sealevel;temperature;humidity
55914;BME280;58179;48.776;9.124;2023-02-15T00:01:43;98640.66;;;-0.16;100.00
55914;BME280;58179;48.776;9.124;2023-02-15T00:04:12;98628.47;;;-0.15;100.00
55914;BME280;58179;48.776;9.124;2023-02-15T00:06:38;98620.59;;;-0.23;100.00
55914;BME280;58179;48.776;9.124;2023-02-15T00:09:04;98623.03;;;-0.22;100.00
55914;BME280;58179;48.776;9.124;2023-02-15T00:11:30;98612.13;;;-0.25;100.00
55914;BME280;58179;48.776;9.124;2023-02-15T00:14:06;98615.91;;;-0.38;100.00
55914;BME280;58179;48.776;9.124;2023-02-15T00:16:34;98610.88;;;-0.39;100.00
55914;BME280;58179;48.776;9.124;2023-02-15T00:19:00;98611.38;;;-0.35;100.00
55914;BME280;58179;48.776;9.124;2023-02-15T00:21:30;98601.81;;;-0.35;100.00
55914;BME280;58179;48.776;9.124;2023-02-15T00:23:58;98612.16;;;-0.43;100.00
55914;BME280;58179;48.776;9.124;2023-02-15T00:26:25;98605.84;;;-0.41;100.00
55914;BME280;58179;48.776;9.124;2023-02-15T00:28:51;98611.66;;;-0.47;100.00
55914;BME280;58179;48.776;9.124;2023-02-15T00:31:18;98614.06;;;-0.45;100.00
55914;BME280;58179;48.776;9.124;2023-02-15T00:33:45;98610.00;;;-0.48;100.00
55914;BME280;58179;48.776;9.124;2023-02-15T00:36:11;98609.06;;;-0.47;100.00
55914;BME280;58179;48.776;9.124;2023-02-15T00:38:38;98597.81;;;-0.47;100.00
55914;BME280;58179;48.776;9.124;2023-02-15T00:41:06;98610.84;;;-0.47;100.00
55914;BME280;58179;48.776;9.124;2023-02-15T00:43:34;98598.78;;;-0.48;100.00
55914;BME280;58179;48.776;9.124;2023-02-15T00:46:00;98602.88;;;-0.46;100.00
55914;BME280;58179;48.776;9.124;2023-02-15T00:48:27;98604.13;;;-0.50;100.00
55914;BME280;58179;48.776;9.124;2023-02-15T00:50:56;98609.66;;;-0.53;100.00
55914;BME280;58179;48.776;9.124;2023-02-15T00:53:23;98605.84;;;-0.58;100.00
55914;BME280;58179;48.776;9.124;2023-02-15T00:55:49;98607.81;;;-0.60;100.00
55914;BME280;58179;48.776;9.124;2023-02-15T00:58:15;98608.78;;;-0.61;100.00
55914;BME280;58179;48.776;9.124;2023-02-15T01:00:44;98607.81;;;-0.60;100.00
55914;BME280;58179;48.776;9.124;2023-02-15T01:03:11;98596.59;;;-0.61;100.00
55914;BME280;58179;48.776;9.124;2023-02-15T01:05:37;98601.31;;;-0.56;100.00
55914;BME280;58179;48.776;9.124;2023-02-15T01:08:05;98592.50;;;-0.63;100.00
55914;BME280;58179;48.776;9.124;2023-02-15T01:10:31;98597.16;;;-0.67;100.00
55914;BME280;58179;48.776;9.124;2023-02-15T01:12:57;98597.03;;;-0.65;100.00
55914;BME280;58179;48.776;9.124;2023-02-15T01:15:23;98591.00;;;-0.66;100.00
55914;BME280;58179;48.776;9.124;2023-02-15T01:17:49;98602.38;;;-0.67;100.00
55914;BME280;58179;48.776;9.124;2023-02-15T01:20:19;98596.34;;;-0.67;100.00
55914;BME280;58179;48.776;9.124;2023-02-15T01:22:46;98599.13;;;-0.69;100.00
55914;BME280;58179;48.776;9.124;2023-02-15T01:25:13;98605.97;;;-0.68;100.00
55914;BME280;58179;48.776;9.124;2023-02-15T01:27:39;98606.38;;;-0.72;100.00
55914;BME280;58179;48.776;9.124;2023-02-15T01:30:07;98599.69;;;-0.75;100.00
55914;BME280;58179;48.776;9.124;2023-02-15T01:32:33;98605.72;;;-0.74;100.00
55914;BME280;58179;48.776;9.124;2023-02-15T01:34:59;98609.59;;;-0.79;100.00
55914;BME280;58179;48.776;9.124;2023-02-15T01:37:25;98608.50;;;-0.76;100.00
55914;BME280;58179;48.776;9.124;2023-02-15T01:39:51;98602.25;;;-0.83;100.00
55914;BME280;58179;48.776;9.124;2023-02-15T01:42:22;98599.78;;;-0.85;100.00
55914;BME280;58179;48.776;9.124;2023-02-15T01:44:52;98591.84;;;-0.83;100.00
55914;BME280;58179;48.776;9.124;2023-02-15T01:47:24;98585.16;;;-0.86;100.00
55914;BME280;58179;48.776;9.124;2023-02-15T01:50:02;98587.91;;;-0.87;100.00
55914;BME280;58179;48.776;9.124;2023-02-15T01:52:29;98591.84;;;-0.83;100.00
55914;BME280;58179;48.776;9.124;2023-02-15T01:54:56;98593.63;;;-0.84;100.00
55914;BME280;58179;48.776;9.124;2023-02-15T01:57:25;98586.19;;;-0.96;100.00
55914;BME280;58179;48.776;9.124;2023-02-15T01:59:56;98584.41;;;-0.96;100.00
55914;BME280;58179;48.776;9.124;2023-02-15T02:02:26;98584.06;;;-1.01;100.00
55914;BME280;58179;48.776;9.124;2023-02-15T02:04:56;98578.19;;;-1.03;100.00
55914;BME280;58179;48.776;9.124;2023-02-15T02:07:28;98581.09;;;-1.06;100.00
55914;BME280;58179;48.776;9.124;2023-02-15T02:09:55;98574.25;;;-1.07;100.00
55914;BME280;58179;48.776;9.124;2023-02-15T02:12:23;98584.50;;;-1.05;100.00
55914;BME280;58179;48.776;9.124;2023-02-15T02:14:50;98577.50;;;-1.05;100.00
55914;BME280;58179;48.776;9.124;2023-02-15T02:17:21;98574.13;;;-1.05;100.00
55914;BME280;58179;48.776;9.124;2023-02-15T02:20:17;98574.25;;;-1.07;100.00
55914;BME280;58179;48.776;9.124;2023-02-15T02:23:32;98575.22;;;-1.08;100.00
55914;BME280;58179;48.776;9.124;2023-02-15T02:26:46;98573.28;;;-1.06;100.00
55914;BME280;58179;48.776;9.124;2023-02-15T02:29:44;98570.69;;;-1.06;100.00
55914;BME280;58179;48.776;9.124;2023-02-15T02:35:49;98564.00;;;-1.08;100.00
55914;BME280;58179;48.776;9.124;2023-02-15T02:38:25;98560.72;;;-1.10;100.00
55914;BME280;58179;48.776;9.124;2023-02-15T02:41:00;98558.44;;;-1.13;100.00
55914;BME280;58179;48.776;9.124;2023-02-15T02:43:37;98561.03;;;-1.13;100.00
55914;BME280;58179;48.776;9.124;2023-02-15T02:46:10;98562.66;;;-1.12;100.00
55914;BME280;58179;48.776;9.124;2023-02-15T02:48:39;98569.81;;;-1.14;100.00
55914;BME280;58179;48.776;9.124;2023-02-15T02:51:06;98568.97;;;-1.15;100.00
55914;BME280;58179;48.776;9.124;2023-02-15T02:53:33;98571.34;;;-1.22;100.00
55914;BME280;58179;48.776;9.124;2023-02-15T02:56:05;98558.78;;;-1.26;100.00
55914;BME280;58179;48.776;9.124;2023-02-15T02:58:38;98554.72;;;-1.29;100.00
55914;BME280;58179;48.776;9.124;2023-02-15T03:01:12;98557.31;;;-1.29;100.00
55914;BME280;58179;48.776;9.124;2023-02-15T03:03:43;98560.22;;;-1.32;100.00
55914;BME280;58179;48.776;9.124;2023-02-15T03:06:15;98552.28;;;-1.30;100.00
55914;BME280;58179;48.776;9.124;2023-02-15T03:08:48;98553.50;;;-1.34;100.00
55914;BME280;58179;48.776;9.124;2023-02-15T03:11:16;98550.78;;;-1.33;100.00
55914;BME280;58179;48.776;9.124;2023-02-15T03:13:44;98556.19;;;-1.44;100.00
55914;BME280;58179;48.776;9.124;2023-02-15T03:16:12;98555.38;;;-1.44;100.00
55914;BME280;58179;48.776;9.124;2023-02-15T03:18:55;98554.84;;;-1.48;100.00
55914;BME280;58179;48.776;9.124;2023-02-15T03:21:33;98560.03;;;-1.48;100.00
55914;BME280;58179;48.776;9.124;2023-02-15T03:24:04;98558.13;;;-1.46;100.00
55914;BME280;58179;48.776;9.124;2023-02-15T03:26:34;98557.44;;;-1.48;100.00
55914;BME280;58179;48.776;9.124;2023-02-15T03:29:03;98548.97;;;-1.50;100.00
55914;BME280;58179;48.776;9.124;2023-02-15T03:31:33;98549.28;;;-1.53;100.00
55914;BME280;58179;48.776;9.124;2023-02-15T03:34:04;98550.38;;;-1.56;100.00
55914;BME280;58179;48.776;9.124;2023-02-15T03:36:41;98550.38;;;-1.56;100.00
55914;BME280;58179;48.776;9.124;2023-02-15T03:39:17;98549.06;;;-1.60;100.00
55914;BME280;58179;48.776;9.124;2023-02-15T03:41:51;98552.59;;;-1.61;100.00
55914;BME280;58179;48.776;9.124;2023-02-15T03:44:27;98552.00;;;-1.54;100.00
55914;BME280;58179;48.776;9.124;2023-02-15T03:46:58;98556.75;;;-1.68;100.00
55914;BME280;58179;48.776;9.124;2023-02-15T03:49:30;98556.19;;;-1.71;100.00
55914;BME280;58179;48.776;9.124;2023-02-15T03:52:03;98553.47;;;-1.70;100.00
55914;BME280;58179;48.776;9.124;2023-02-15T03:54:33;98557.44;;;-1.66;100.00
55914;BME280;58179;48.776;9.124;2023-02-15T03:57:13;98552.97;;;-1.73;100.00
55914;BME280;58179;48.776;9.124;2023-02-15T03:59:59;98556.50;;;-1.74;100.00
55914;BME280;58179;48.776;9.124;2023-02-15T04:03:21;98554.88;;;-1.75;100.00
55914;BME280;58179;48.776;9.124;2023-02-15T04:05:49;98555.38;;;-1.72;100.00
55914;BME280;58179;48.776;9.124;2023-02-15T04:08:16;98554.31;;;-1.79;100.00
55914;BME280;58179;48.776;9.124;2023-02-15T04:10:42;98558.06;;;-1.81;100.00
55914;BME280;58179;48.776;9.124;2023-02-15T04:13:23;98555.59;;;-1.83;100.00
55914;BME280;58179;48.776;9.124;2023-02-15T04:15:49;98553.00;;;-1.83;100.00
55914;BME280;58179;48.776;9.124;2023-02-15T04:18:32;98544.97;;;-1.89;100.00
55914;BME280;58179;48.776;9.124;2023-02-15T04:21:17;98551.13;;;-1.90;100.00
55914;BME280;58179;48.776;9.124;2023-02-15T04:24:03;98552.91;;;-1.91;100.00
55914;BME280;58179;48.776;9.124;2023-02-15T04:26:48;98552.06;;;-1.91;100.00
55914;BME280;58179;48.776;9.124;2023-02-15T04:29:14;98550.44;;;-1.92;100.00
55914;BME280;58179;48.776;9.124;2023-02-15T04:31:40;98547.03;;;-1.93;100.00
55914;BME280;58179;48.776;9.124;2023-02-15T04:34:06;98541.97;;;-1.95;100.00
55914;BME280;58179;48.776;9.124;2023-02-15T04:36:32;98539.94;;;-1.91;100.00
55914;BME280;58179;48.776;9.124;2023-02-15T04:38:58;98542.16;;;-1.96;100.00
55914;BME280;58179;48.776;9.124;2023-02-15T04:41:25;98544.44;;;-1.93;100.00
55914;BME280;58179;48.776;9.124;2023-02-15T04:43:51;98543.25;;;-1.99;100.00
55914;BME280;58179;48.776;9.124;2023-02-15T04:46:17;98534.91;;;-2.02;100.00
55914;BME280;58179;48.776;9.124;2023-02-15T04:48:43;98520.34;;;-2.03;100.00
55914;BME280;58179;48.776;9.124;2023-02-15T04:51:09;98525.34;;;-2.02;100.00
55914;BME280;58179;48.776;9.124;2023-02-15T04:53:35;98522.09;;;-2.04;100.00
55914;BME280;58179;48.776;9.124;2023-02-15T04:56:01;98509.53;;;-2.08;100.00
55914;BME280;58179;48.776;9.124;2023-02-15T04:58:29;98507.78;;;-2.08;100.00
55914;BME280;58179;48.776;9.124;2023-02-15T05:00:55;98508.31;;;-2.04;100.00
55914;BME280;58179;48.776;9.124;2023-02-15T05:03:22;98509.78;;;-2.02;100.00
55914;BME280;58179;48.776;9.124;2023-02-15T05:05:48;98508.06;;;-2.11;100.00
55914;BME280;58179;48.776;9.124;2023-02-15T05:08:14;98521.19;;;-2.12;100.00
55914;BME280;58179;48.776;9.124;2023-02-15T05:10:40;98527.03;;;-2.10;100.00
55914;BME280;58179;48.776;9.124;2023-02-15T05:13:06;98530.84;;;-2.05;100.00
55914;BME280;58179;48.776;9.124;2023-02-15T05:15:33;98527.19;;;-2.12;100.00
55914;BME280;58179;48.776;9.124;2023-02-15T05:17:59;98526.50;;;-2.14;100.00
55914;BME280;58179;48.776;9.124;2023-02-15T05:20:26;98528.28;;;-2.14;100.00
55914;BME280;58179;48.776;9.124;2023-02-15T05:22:53;98524.34;;;-2.18;100.00
55914;BME280;58179;48.776;9.124;2023-02-15T05:25:20;98530.06;;;-2.15;100.00
55914;BME280;58179;48.776;9.124;2023-02-15T05:28:04;98529.63;;;-2.10;100.00
55914;BME280;58179;48.776;9.124;2023-02-15T05:30:47;98529.00;;;-2.22;100.00
55914;BME280;58179;48.776;9.124;2023-02-15T05:33:13;98521.22;;;-2.22;100.00
55914;BME280;58179;48.776;9.124;2023-02-15T05:35:39;98521.09;;;-2.20;100.00
55914;BME280;58179;48.776;9.124;2023-02-15T05:38:05;98521.22;;;-2.22;100.00
55914;BME280;58179;48.776;9.124;2023-02-15T05:40:31;98528.63;;;-2.27;100.00
55914;BME280;58179;48.776;9.124;2023-02-15T05:42:57;98529.69;;;-2.29;100.00
55914;BME280;58179;48.776;9.124;2023-02-15T05:45:23;98528.75;;;-2.28;100.00
55914;BME280;58179;48.776;9.124;2023-02-15T05:47:50;98531.22;;;-2.27;100.00
55914;BME280;58179;48.776;9.124;2023-02-15T05:50:17;98532.44;;;-2.31;100.00
55914;BME280;58179;48.776;9.124;2023-02-15T05:52:43;98526.56;;;-2.33;100.00
55914;BME280;58179;48.776;9.124;2023-02-15T05:55:09;98533.56;;;-2.33;100.00
55914;BME280;58179;48.776;9.124;2023-02-15T05:57:35;98528.38;;;-2.33;100.00
55914;BME280;58179;48.776;9.124;2023-02-15T06:00:02;98530.53;;;-2.29;100.00
55914;BME280;58179;48.776;9.124;2023-02-15T06:02:31;98530.97;;;-2.33;100.00
55914;BME280;58179;48.776;9.124;2023-02-15T06:04:59;98528.78;;;-2.38;100.00
55914;BME280;58179;48.776;9.124;2023-02-15T06:07:25;98527.81;;;-2.37;100.00
55914;BME280;58179;48.776;9.124;2023-02-15T06:09:51;98529.72;;;-2.39;100.00
55914;BME280;58179;48.776;9.124;2023-02-15T06:12:17;98521.13;;;-2.40;100.00
55914;BME280;58179;48.776;9.124;2023-02-15T06:14:43;98524.03;;;-2.43;100.00
55914;BME280;58179;48.776;9.124;2023-02-15T06:17:09;98528.91;;;-2.40;100.00
55914;BME280;58179;48.776;9.124;2023-02-15T06:19:35;98528.25;;;-2.42;100.00
55914;BME280;58179;48.776;9.124;2023-02-15T06:22:02;98533.72;;;-2.45;100.00
55914;BME280;58179;48.776;9.124;2023-02-15T06:24:28;98528.78;;;-2.48;100.00
55914;BME280;58179;48.776;9.124;2023-02-15T06:26:54;98536.56;;;-2.48;100.00
55914;BME280;58179;48.776;9.124;2023-02-15T06:29:20;98540.81;;;-2.47;100.00
55914;BME280;58179;48.776;9.124;2023-02-15T06:31:45;98535.78;;;-2.48;100.00
55914;BME280;58179;48.776;9.124;2023-02-15T06:34:11;98542.06;;;-2.51;100.00
55914;BME280;58179;48.776;9.124;2023-02-15T06:36:37;98544.78;;;-2.52;100.00
55914;BME280;58179;48.776;9.124;2023-02-15T06:39:04;98541.75;;;-2.48;100.00
55914;BME280;58179;48.776;9.124;2023-02-15T06:41:31;98553.25;;;-2.50;100.00
55914;BME280;58179;48.776;9.124;2023-02-15T06:43:56;98557.75;;;-2.52;100.00
55914;BME280;58179;48.776;9.124;2023-02-15T06:46:22;98550.50;;;-2.49;100.00
55914;BME280;58179;48.776;9.124;2023-02-15T06:48:48;98560.06;;;-2.49;100.00
55914;BME280;58179;48.776;9.124;2023-02-15T06:51:14;98557.19;;;-2.46;100.00
55914;BME280;58179;48.776;9.124;2023-02-15T06:53:40;98548.56;;;-2.47;100.00
55914;BME280;58179;48.776;9.124;2023-02-15T06:56:11;98548.56;;;-2.47;100.00
55914;BME280;58179;48.776;9.124;2023-02-15T06:58:37;98557.31;;;-2.48;100.00
55914;BME280;58179;48.776;9.124;2023-02-15T07:01:04;98550.66;;;-2.50;100.00
55914;BME280;58179;48.776;9.124;2023-02-15T07:03:31;98554.06;;;-2.50;100.00
55914;BME280;58179;48.776;9.124;2023-02-15T07:05:58;98555.28;;;-2.44;100.00
55914;BME280;58179;48.776;9.124;2023-02-15T07:08:25;98553.50;;;-2.44;100.00
55914;BME280;58179;48.776;9.124;2023-02-15T07:10:53;98562.63;;;-2.40;100.00
55914;BME280;58179;48.776;9.124;2023-02-15T07:13:20;98565.06;;;-2.38;100.00
55914;BME280;58179;48.776;9.124;2023-02-15T07:15:47;98561.28;;;-2.44;100.00
55914;BME280;58179;48.776;9.124;2023-02-15T07:18:14;98571.38;;;-2.41;100.00
55914;BME280;58179;48.776;9.124;2023-02-15T07:20:40;98567.78;;;-2.40;100.00
55914;BME280;58179;48.776;9.124;2023-02-15T07:23:08;98572.31;;;-2.42;100.00
55914;BME280;58179;48.776;9.124;2023-02-15T07:25:34;98579.00;;;-2.39;100.00
55914;BME280;58179;48.776;9.124;2023-02-15T07:28:02;98575.31;;;-2.37;100.00
55914;BME280;58179;48.776;9.124;2023-02-15T07:30:30;98575.81;;;-2.33;100.00
55914;BME280;58179;48.776;9.124;2023-02-15T07:32:56;98578.97;;;-2.29;100.00
55914;BME280;58179;48.776;9.124;2023-02-15T07:35:47;98573.53;;;-2.26;100.00
55914;BME280;58179;48.776;9.124;2023-02-15T07:38:13;98579.09;;;-2.21;100.00
55914;BME280;58179;48.776;9.124;2023-02-15T07:40:39;98568.28;;;-2.17;100.00
55914;BME280;58179;48.776;9.124;2023-02-15T07:43:05;98569.50;;;-2.11;100.00
55914;BME280;58179;48.776;9.124;2023-02-15T07:45:32;98568.25;;;-2.07;100.00
55914;BME280;58179;48.776;9.124;2023-02-15T07:48:00;98561.84;;;-2.03;100.00
55914;BME280;58179;48.776;9.124;2023-02-15T07:50:26;98559.63;;;-1.98;100.00
55914;BME280;58179;48.776;9.124;2023-02-15T07:52:52;98551.25;;;-1.92;100.00
55914;BME280;58179;48.776;9.124;2023-02-15T07:55:18;98553.00;;;-1.83;100.00
55914;BME280;58179;48.776;9.124;2023-02-15T07:57:46;98559.09;;;-1.74;100.00
55914;BME280;58179;48.776;9.124;2023-02-15T08:00:14;98559.19;;;-1.66;100.00
55914;BME280;58179;48.776;9.124;2023-02-15T08:02:42;98556.69;;;-1.58;100.00
55914;BME280;58179;48.776;9.124;2023-02-15T08:05:12;98561.94;;;-1.50;100.00
55914;BME280;58179;48.776;9.124;2023-02-15T08:07:38;98567.22;;;-1.42;100.00
55914;BME280;58179;48.776;9.124;2023-02-15T08:10:06;98570.59;;;-1.32;100.00
55914;BME280;58179;48.776;9.124;2023-02-15T08:12:32;98569.72;;;-1.23;100.00
55914;BME280;58179;48.776;9.124;2023-02-15T08:14:58;98562.16;;;-1.16;100.00
55914;BME280;58179;48.776;9.124;2023-02-15T08:17:24;98566.97;;;-1.03;100.00
55914;BME280;58179;48.776;9.124;2023-02-15T08:19:51;98567.84;;;-0.95;100.00
55914;BME280;58179;48.776;9.124;2023-02-15T08:22:18;98574.63;;;-0.84;100.00
55914;BME280;58179;48.776;9.124;2023-02-15T08:24:43;98566.72;;;-0.74;100.00
55914;BME280;58179;48.776;9.124;2023-02-15T08:27:11;98565.81;;;-0.65;100.00
55914;BME280;58179;48.776;9.124;2023-02-15T08:29:37;98558.91;;;-0.57;100.00
55914;BME280;58179;48.776;9.124;2023-02-15T08:32:08;98561.41;;;-0.47;100.00
55914;BME280;58179;48.776;9.124;2023-02-15T08:34:38;98561.63;;;-0.41;100.00
55914;BME280;58179;48.776;9.124;2023-02-15T08:37:06;98571.75;;;-0.29;100.00
55914;BME280;58179;48.776;9.124;2023-02-15T08:39:32;98561.56;;;-0.23;100.00
55914;BME280;58179;48.776;9.124;2023-02-15T08:41:58;98565.19;;;-0.16;100.00
55914;BME280;58179;48.776;9.124;2023-02-15T08:44:24;98567.31;;;-0.11;100.00
55914;BME280;58179;48.776;9.124;2023-02-15T08:46:50;98570.94;;;-0.04;100.00
55914;BME280;58179;48.776;9.124;2023-02-15T08:49:19;98567.72;;;0.02;100.00
55914;BME280;58179;48.776;9.124;2023-02-15T08:51:46;98569.88;;;0.07;100.00
55914;BME280;58179;48.776;9.124;2023-02-15T08:54:16;98557.19;;;0.12;100.00
55914;BME280;58179;48.776;9.124;2023-02-15T08:56:44;98561.63;;;0.19;100.00
55914;BME280;58179;48.776;9.124;2023-02-15T08:59:14;98552.34;;;0.25;100.00
55914;BME280;58179;48.776;9.124;2023-02-15T09:01:40;98549.94;;;0.31;100.00
55914;BME280;58179;48.776;9.124;2023-02-15T09:04:07;98550.13;;;0.38;100.00
55914;BME280;58179;48.776;9.124;2023-02-15T09:06:39;98546.72;;;0.46;100.00
55914;BME280;58179;48.776;9.124;2023-02-15T09:09:06;98541.72;;;0.52;100.00
55914;BME280;58179;48.776;9.124;2023-02-15T09:11:37;98546.28;;;0.58;100.00
55914;BME280;58179;48.776;9.124;2023-02-15T09:14:05;98546.31;;;0.66;100.00
55914;BME280;58179;48.776;9.124;2023-02-15T09:16:35;98538.81;;;0.71;100.00
55914;BME280;58179;48.776;9.124;2023-02-15T09:19:02;98541.59;;;0.78;100.00
55914;BME280;58179;48.776;9.124;2023-02-15T09:21:31;98543.25;;;0.87;100.00
55914;BME280;58179;48.776;9.124;2023-02-15T09:24:00;98544.06;;;0.96;100.00
55914;BME280;58179;48.776;9.124;2023-02-15T09:26:29;98538.84;;;1.04;100.00
55914;BME280;58179;48.776;9.124;2023-02-15T09:28:58;98537.84;;;1.13;100.00
55914;BME280;58179;48.776;9.124;2023-02-15T09:31:28;98535.91;;;1.23;100.00
55914;BME280;58179;48.776;9.124;2023-02-15T09:33:55;98530.69;;;1.31;100.00
55914;BME280;58179;48.776;9.124;2023-02-15T09:36:24;98522.88;;;1.39;100.00
55914;BME280;58179;48.776;9.124;2023-02-15T09:38:56;98526.28;;;1.48;100.00
55914;BME280;58179;48.776;9.124;2023-02-15T09:45:10;98516.44;;;1.66;100.00
55914;BME280;58179;48.776;9.124;2023-02-15T09:48:16;98522.81;;;1.80;100.00
55914;BME280;58179;48.776;9.124;2023-02-15T09:50:59;98521.78;;;1.89;100.00
55914;BME280;58179;48.776;9.124;2023-02-15T09:53:47;98520.06;;;2.12;100.00
55914;BME280;58179;48.776;9.124;2023-02-15T09:56:24;98514.53;;;2.46;100.00
55914;BME280;58179;48.776;9.124;2023-02-15T09:58:58;98512.63;;;2.86;100.00
55914;BME280;58179;48.776;9.124;2023-02-15T10:01:40;98510.72;;;3.40;100.00
55914;BME280;58179;48.776;9.124;2023-02-15T10:04:33;98504.53;;;4.00;100.00
55914;BME280;58179;48.776;9.124;2023-02-15T10:07:14;98511.22;;;4.53;100.00
55914;BME280;58179;48.776;9.124;2023-02-15T10:09:56;98514.56;;;5.04;100.00
55914;BME280;58179;48.776;9.124;2023-02-15T10:12:45;98504.22;;;5.45;100.00
55914;BME280;58179;48.776;9.124;2023-02-15T10:15:33;98508.19;;;5.90;100.00
55914;BME280;58179;48.776;9.124;2023-02-15T10:18:34;98511.50;;;6.46;100.00
55914;BME280;58179;48.776;9.124;2023-02-15T10:21:12;98502.13;;;7.11;100.00
55914;BME280;58179;48.776;9.124;2023-02-15T10:24:02;98500.91;;;7.73;100.00
55914;BME280;58179;48.776;9.124;2023-02-15T10:26:38;98498.88;;;8.46;100.00
55914;BME280;58179;48.776;9.124;2023-02-15T10:29:12;98497.28;;;8.76;100.00
55914;BME280;58179;48.776;9.124;2023-02-15T10:31:48;98497.25;;;9.14;100.00
55914;BME280;58179;48.776;9.124;2023-02-15T10:34:19;98495.72;;;9.75;100.00
55914;BME280;58179;48.776;9.124;2023-02-15T10:37:09;98496.03;;;10.58;100.00
55914;BME280;58179;48.776;9.124;2023-02-15T10:39:49;98485.66;;;11.39;100.00
55914;BME280;58179;48.776;9.124;2023-02-15T10:42:27;98488.22;;;12.04;100.00
55914;BME280;58179;48.776;9.124;2023-02-15T10:45:10;98472.31;;;12.72;100.00
55914;BME280;58179;48.776;9.124;2023-02-15T10:50:54;98459.59;;;13.91;100.00
55914;BME280;58179;48.776;9.124;2023-02-15T10:53:48;98466.91;;;14.40;100.00
55914;BME280;58179;48.776;9.124;2023-02-15T10:56:20;98462.03;;;14.80;100.00
55914;BME280;58179;48.776;9.124;2023-02-15T11:01:50;98461.81;;;15.19;100.00
55914;BME280;58179;48.776;9.124;2023-02-15T11:04:51;98454.59;;;15.14;100.00
55914;BME280;58179;48.776;9.124;2023-02-15T11:07:25;98454.34;;;15.16;100.00
55914;BME280;58179;48.776;9.124;2023-02-15T11:10:01;98448.19;;;15.15;100.00
55914;BME280;58179;48.776;9.124;2023-02-15T11:12:31;98445.66;;;15.30;100.00
55914;BME280;58179;48.776;9.124;2023-02-15T11:15:02;98444.53;;;15.26;100.00
55914;BME280;58179;48.776;9.124;2023-02-15T11:17:36;98440.22;;;15.20;100.00
55914;BME280;58179;48.776;9.124;2023-02-15T11:20:16;98440.97;;;15.10;100.00
55914;BME280;58179;48.776;9.124;2023-02-15T11:22:48;98429.53;;;15.15;100.00
55914;BME280;58179;48.776;9.124;2023-02-15T11:25:19;98439.00;;;15.33;100.00
55914;BME280;58179;48.776;9.124;2023-02-15T11:27:48;98432.09;;;15.74;100.00
55914;BME280;58179;48.776;9.124;2023-02-15T11:30:19;98431.69;;;16.02;100.00
55914;BME280;58179;48.776;9.124;2023-02-15T11:32:47;98432.16;;;16.56;100.00
55914;BME280;58179;48.776;9.124;2023-02-15T11:35:24;98429.31;;;16.88;100.00
55914;BME280;58179;48.776;9.124;2023-02-15T11:38:01;98427.44;;;17.45;100.00
55914;BME280;58179;48.776;9.124;2023-02-15T11:40:33;98429.81;;;17.82;100.00
55914;BME280;58179;48.776;9.124;2023-02-15T11:43:05;98430.78;;;18.06;100.00
55914;BME280;58179;48.776;9.124;2023-02-15T11:45:34;98433.19;;;18.17;100.00
55914;BME280;58179;48.776;9.124;2023-02-15T11:48:01;98429.44;;;18.13;100.00
55914;BME280;58179;48.776;9.124;2023-02-15T11:50:34;98422.19;;;18.19;100.00
55914;BME280;58179;48.776;9.124;2023-02-15T11:53:04;98423.56;;;18.11;100.00
55914;BME280;58179;48.776;9.124;2023-02-15T11:55:30;98429.19;;;18.10;100.00
55914;BME280;58179;48.776;9.124;2023-02-15T11:58:01;98428.97;;;17.96;100.00
55914;BME280;58179;48.776;9.124;2023-02-15T12:00:33;98427.94;;;17.67;100.00
55914;BME280;58179;48.776;9.124;2023-02-15T12:03:09;98424.53;;;17.21;100.00
55914;BME280;58179;48.776;9.124;2023-02-15T12:05:42;98426.38;;;16.75;100.00
55914;BME280;58179;48.776;9.124;2023-02-15T12:08:17;98420.88;;;16.29;100.00
55914;BME280;58179;48.776;9.124;2023-02-15T12:10:57;98417.50;;;15.92;100.00
55914;BME280;58179;48.776;9.124;2023-02-15T12:13:24;98420.25;;;15.55;100.00
55914;BME280;58179;48.776;9.124;2023-02-15T12:15:53;98414.63;;;15.19;100.00
55914;BME280;58179;48.776;9.124;2023-02-15T12:18:34;98412.19;;;14.81;100.00
55914;BME280;58179;48.776;9.124;2023-02-15T12:21:05;98414.34;;;14.57;100.00
55914;BME280;58179;48.776;9.124;2023-02-15T12:23:34;98408.91;;;14.25;100.00
55914;BME280;58179;48.776;9.124;2023-02-15T12:26:05;98405.50;;;14.08;100.00
55914;BME280;58179;48.776;9.124;2023-02-15T12:28:34;98406.44;;;13.75;100.00
55914;BME280;58179;48.776;9.124;2023-02-15T12:31:04;98404.09;;;13.23;100.00
55914;BME280;58179;48.776;9.124;2023-02-15T12:33:38;98406.38;;;12.86;100.00
55914;BME280;58179;48.776;9.124;2023-02-15T12:36:12;98397.16;;;12.44;100.00
55914;BME280;58179;48.776;9.124;2023-02-15T12:38:42;98399.00;;;12.15;100.00
55914;BME280;58179;48.776;9.124;2023-02-15T12:41:25;98399.53;;;11.88;100.00
55914;BME280;58179;48.776;9.124;2023-02-15T12:44:05;98394.94;;;11.72;100.00
55914;BME280;58179;48.776;9.124;2023-02-15T12:46:32;98397.59;;;11.72;100.00
55914;BME280;58179;48.776;9.124;2023-02-15T12:49:18;98394.13;;;11.83;100.00
55914;BME280;58179;48.776;9.124;2023-02-15T12:51:48;98390.69;;;12.11;100.00
55914;BME280;58179;48.776;9.124;2023-02-15T12:54:35;98379.81;;;12.24;100.00
55914;BME280;58179;48.776;9.124;2023-02-15T12:57:23;98379.56;;;12.54;100.00
55914;BME280;58179;48.776;9.124;2023-02-15T12:59:53;98374.84;;;13.06;100.00
55914;BME280;58179;48.776;9.124;2023-02-15T13:02:35;98381.50;;;13.81;100.00
55914;BME280;58179;48.776;9.124;2023-02-15T13:05:18;98377.69;;;14.42;100.00
55914;BME280;58179;48.776;9.124;2023-02-15T13:07:48;98374.44;;;14.67;100.00
55914;BME280;58179;48.776;9.124;2023-02-15T13:10:26;98361.69;;;14.69;100.00
55914;BME280;58179;48.776;9.124;2023-02-15T13:12:55;98355.28;;;14.65;100.00
55914;BME280;58179;48.776;9.124;2023-02-15T13:15:32;98359.28;;;14.67;100.00
55914;BME280;58179;48.776;9.124;2023-02-15T13:18:00;98355.81;;;14.67;100.00
55914;BME280;58179;48.776;9.124;2023-02-15T13:20:28;98346.09;;;14.51;100.00
55914;BME280;58179;48.776;9.124;2023-02-15T13:22:58;98350.97;;;14.37;100.00
55914;BME280;58179;48.776;9.124;2023-02-15T13:25:29;98345.59;;;14.05;100.00